createdAt,value
2017-08-31T00:00:39.064Z,0
2017-08-31T00:01:39.041Z,0
2017-08-31T00:02:38.734Z,0
2017-08-31T00:03:38.731Z,0
2017-08-31T00:04:38.108Z,0
2017-08-31T00:05:38.726Z,0
2017-08-31T00:06:38.704Z,0
2017-08-31T00:07:38.693Z,0
2017-08-31T00:08:38.689Z,0
2017-08-31T00:09:38.693Z,0
2017-08-31T00:10:38.664Z,0
2017-08-31T00:11:38.671Z,0
2017-08-31T00:12:38.342Z,0
2017-08-31T00:13:38.653Z,0
2017-08-31T00:14:38.652Z,0
2017-08-31T00:15:38.634Z,0
2017-08-31T00:16:38.625Z,0
2017-08-31T00:17:38.640Z,0
2017-08-31T00:18:38.307Z,0
2017-08-31T00:19:37.991Z,0
2017-08-31T00:20:38.283Z,0
2017-08-31T00:21:38.604Z,0
2017-08-31T00:22:38.273Z,0
2017-08-31T00:23:38.280Z,0
2017-08-31T00:24:38.890Z,0
2017-08-31T00:25:38.875Z,0
2017-08-31T00:26:38.865Z,0
2017-08-31T00:27:38.879Z,0
2017-08-31T00:28:37.924Z,0
2017-08-31T00:29:38.529Z,0
2017-08-31T00:30:38.853Z,0
2017-08-31T00:31:38.513Z,0
2017-08-31T00:32:38.821Z,0
2017-08-31T00:33:38.520Z,0
2017-08-31T00:34:38.798Z,0
2017-08-31T00:35:38.193Z,0
2017-08-31T00:36:38.793Z,0
2017-08-31T00:37:38.782Z,0
2017-08-31T00:38:38.785Z,0
2017-08-31T00:39:38.473Z,0
2017-08-31T00:40:38.144Z,0
2017-08-31T00:41:38.793Z,0
2017-08-31T00:42:38.133Z,0
2017-08-31T00:43:38.125Z,0
2017-08-31T00:44:38.123Z,0
2017-08-31T00:45:38.732Z,0
2017-08-31T00:46:38.109Z,0
2017-08-31T00:47:38.097Z,0
2017-08-31T00:48:38.100Z,0
2017-08-31T00:49:38.090Z,0
2017-08-31T00:50:38.729Z,0
2017-08-31T00:51:38.385Z,0
2017-08-31T00:52:38.379Z,0
2017-08-31T00:53:38.358Z,0
2017-08-31T00:54:38.667Z,0
2017-08-31T00:55:38.667Z,0
2017-08-31T00:56:38.347Z,0
2017-08-31T00:57:38.661Z,0
2017-08-31T00:58:38.644Z,0
2017-08-31T00:59:38.320Z,0
2017-08-31T01:00:38.320Z,0
2017-08-31T01:01:38.301Z,0
2017-08-31T01:02:38.308Z,0
2017-08-31T01:03:38.623Z,0
2017-08-31T01:04:38.288Z,0
2017-08-31T01:05:38.324Z,0
2017-08-31T01:06:38.285Z,0
2017-08-31T01:07:38.266Z,0
2017-08-31T01:08:38.566Z,0
2017-08-31T01:09:38.252Z,0
2017-08-31T01:10:38.244Z,0
2017-08-31T01:11:38.242Z,0
2017-08-31T01:12:38.228Z,0
2017-08-31T01:13:38.221Z,0
2017-08-31T01:14:37.911Z,0
2017-08-31T01:15:38.205Z,0
2017-08-31T01:16:38.201Z,0
2017-08-31T01:17:37.890Z,0
2017-08-31T01:18:38.503Z,0
2017-08-31T01:19:38.502Z,0
2017-08-31T01:20:38.159Z,0
2017-08-31T01:21:38.467Z,0
2017-08-31T01:22:38.467Z,0
2017-08-31T01:23:38.475Z,0
2017-08-31T01:24:38.460Z,0
2017-08-31T01:25:38.443Z,0
2017-08-31T01:26:37.822Z,0
2017-08-31T01:27:38.428Z,0
2017-08-31T01:28:38.432Z,0
2017-08-31T01:29:38.415Z,0
2017-08-31T01:30:38.089Z,0
2017-08-31T01:31:38.084Z,0
2017-08-31T01:32:38.077Z,0
2017-08-31T01:33:38.057Z,0
2017-08-31T01:34:38.073Z,0
2017-08-31T01:35:38.366Z,0
2017-08-31T01:36:38.363Z,0
2017-08-31T01:37:38.361Z,0
2017-08-31T01:38:38.333Z,0
2017-08-31T01:39:38.326Z,0
2017-08-31T01:40:38.337Z,0
2017-08-31T01:41:37.709Z,0
2017-08-31T01:42:38.316Z,0
2017-08-31T01:43:38.356Z,0
2017-08-31T01:44:38.006Z,0
2017-08-31T01:45:38.301Z,0
2017-08-31T01:46:38.304Z,0
2017-08-31T01:47:38.278Z,0
2017-08-31T01:48:38.281Z,0
2017-08-31T01:49:38.299Z,0
2017-08-31T01:50:38.274Z,0
2017-08-31T01:51:37.638Z,0
2017-08-31T01:52:38.246Z,0
2017-08-31T01:53:37.934Z,0
2017-08-31T01:54:38.232Z,0
2017-08-31T01:55:38.241Z,0
2017-08-31T01:56:38.228Z,0
2017-08-31T01:57:37.913Z,0
2017-08-31T01:58:38.208Z,0
2017-08-31T01:59:38.207Z,0
2017-08-31T02:00:38.182Z,0
2017-08-31T02:01:38.191Z,0
2017-08-31T02:02:38.180Z,0
2017-08-31T02:03:38.163Z,0
2017-08-31T02:04:38.169Z,0
2017-08-31T02:05:38.165Z,0
2017-08-31T02:06:38.142Z,0
2017-08-31T02:07:38.142Z,0
2017-08-31T02:08:38.145Z,0
2017-08-31T02:09:38.125Z,0
2017-08-31T02:10:37.806Z,0
2017-08-31T02:11:37.484Z,0
2017-08-31T02:12:37.791Z,0
2017-08-31T02:13:38.088Z,0
2017-08-31T02:14:38.093Z,0
2017-08-31T02:15:38.091Z,0
2017-08-31T02:16:38.087Z,0
2017-08-31T02:17:38.051Z,0
2017-08-31T02:18:37.761Z,0
2017-08-31T02:19:38.064Z,0
2017-08-31T02:20:38.051Z,0
2017-08-31T02:21:38.042Z,0
2017-08-31T02:22:37.704Z,0
2017-08-31T02:23:37.715Z,0
2017-08-31T02:24:37.720Z,0
2017-08-31T02:25:38.014Z,0
2017-08-31T02:26:38.007Z,0
2017-08-31T02:27:37.996Z,0
2017-08-31T02:28:37.996Z,0
2017-08-31T02:29:37.981Z,0
2017-08-31T02:30:37.961Z,0
2017-08-31T02:31:37.958Z,0
2017-08-31T02:32:37.960Z,0
2017-08-31T02:33:37.960Z,0
2017-08-31T02:34:37.946Z,0
2017-08-31T02:35:37.947Z,0
2017-08-31T02:36:37.926Z,0
2017-08-31T02:37:37.927Z,0
2017-08-31T02:38:37.925Z,0
2017-08-31T02:39:37.910Z,0
2017-08-31T02:40:37.891Z,0
2017-08-31T02:41:37.894Z,0
2017-08-31T02:42:37.886Z,0
2017-08-31T02:43:37.570Z,0
2017-08-31T02:44:37.877Z,0
2017-08-31T02:45:37.881Z,0
2017-08-31T02:46:37.863Z,0
2017-08-31T02:47:37.857Z,0
2017-08-31T02:48:37.856Z,0
2017-08-31T02:49:37.828Z,0
2017-08-31T02:50:37.825Z,0
2017-08-31T02:51:37.816Z,0
2017-08-31T02:52:37.185Z,0
2017-08-31T02:53:37.478Z,0
2017-08-31T02:54:37.179Z,0
2017-08-31T02:55:37.781Z,0
2017-08-31T02:56:37.789Z,0
2017-08-31T02:57:37.766Z,0
2017-08-31T02:58:37.764Z,0
2017-08-31T02:59:37.743Z,0
2017-08-31T03:00:37.753Z,0
2017-08-31T03:01:37.745Z,0
2017-08-31T03:02:37.728Z,0
2017-08-31T03:03:37.425Z,0
2017-08-31T03:04:37.736Z,0
2017-08-31T03:05:37.416Z,0
2017-08-31T03:06:37.400Z,0
2017-08-31T03:07:37.692Z,0
2017-08-31T03:08:37.685Z,0
2017-08-31T03:09:37.694Z,0
2017-08-31T03:10:37.683Z,0
2017-08-31T03:11:37.358Z,0
2017-08-31T03:12:37.656Z,0
2017-08-31T03:13:37.339Z,0
2017-08-31T03:14:37.656Z,0
2017-08-31T03:15:37.656Z,0
2017-08-31T03:16:37.643Z,0
2017-08-31T03:17:37.312Z,0
2017-08-31T03:18:37.602Z,0
2017-08-31T03:19:37.598Z,0
2017-08-31T03:20:37.607Z,0
2017-08-31T03:21:37.316Z,0
2017-08-31T03:22:37.601Z,0
2017-08-31T03:23:37.267Z,0
2017-08-31T03:24:37.270Z,0
2017-08-31T03:25:37.248Z,0
2017-08-31T03:26:37.249Z,0
2017-08-31T03:27:37.248Z,0
2017-08-31T03:28:37.240Z,0
2017-08-31T03:29:37.544Z,0
2017-08-31T03:30:37.242Z,0
2017-08-31T03:31:37.227Z,0
2017-08-31T03:32:37.218Z,0
2017-08-31T03:33:37.203Z,0
2017-08-31T03:34:36.876Z,0
2017-08-31T03:35:37.183Z,0
2017-08-31T03:36:36.866Z,0
2017-08-31T03:37:37.183Z,0
2017-08-31T03:38:37.490Z,0
2017-08-31T03:39:37.187Z,0
2017-08-31T03:40:36.842Z,0
2017-08-31T03:41:37.153Z,0
2017-08-31T03:42:37.157Z,0
2017-08-31T03:43:37.143Z,0
2017-08-31T03:44:37.124Z,0
2017-08-31T03:45:37.419Z,0
2017-08-31T03:46:37.428Z,0
2017-08-31T03:47:37.412Z,0
2017-08-31T03:48:37.397Z,0
2017-08-31T03:49:36.770Z,0
2017-08-31T03:50:37.386Z,0
2017-08-31T03:51:37.076Z,0
2017-08-31T03:52:37.363Z,0
2017-08-31T03:53:37.356Z,0
2017-08-31T03:54:37.358Z,0
2017-08-31T03:55:37.352Z,0
2017-08-31T03:56:37.346Z,0
2017-08-31T03:57:37.329Z,0
2017-08-31T03:58:37.328Z,0
2017-08-31T03:59:37.325Z,0
2017-08-31T04:00:37.320Z,0
2017-08-31T04:01:37.287Z,0
2017-08-31T04:02:37.301Z,0
2017-08-31T04:03:37.302Z,0
2017-08-31T04:04:37.289Z,0
2017-08-31T04:05:36.968Z,0
2017-08-31T04:06:36.950Z,0
2017-08-31T04:07:37.272Z,0
2017-08-31T04:08:37.250Z,0
2017-08-31T04:09:37.245Z,0
2017-08-31T04:10:36.619Z,0
2017-08-31T04:11:37.271Z,0
2017-08-31T04:12:37.222Z,0
2017-08-31T04:13:37.210Z,0
2017-08-31T04:14:36.908Z,0
2017-08-31T04:15:37.202Z,0
2017-08-31T04:16:36.879Z,0
2017-08-31T04:17:37.189Z,5
2017-08-31T04:18:37.171Z,5
2017-08-31T04:19:37.187Z,5
2017-08-31T04:20:36.853Z,5
2017-08-31T04:21:37.154Z,10
2017-08-31T04:22:36.847Z,10
2017-08-31T04:23:37.150Z,10
2017-08-31T04:24:36.834Z,10
2017-08-31T04:25:37.136Z,15
2017-08-31T04:26:37.110Z,15
2017-08-31T04:27:37.116Z,15
2017-08-31T04:28:37.107Z,15
2017-08-31T04:29:36.790Z,15
2017-08-31T04:30:36.792Z,15
2017-08-31T04:31:37.076Z,20
2017-08-31T04:32:37.073Z,20
2017-08-31T04:33:36.745Z,25
2017-08-31T04:34:36.739Z,25
2017-08-31T04:35:36.437Z,30
2017-08-31T04:36:37.042Z,30
2017-08-31T04:37:37.021Z,35
2017-08-31T04:38:37.009Z,40
2017-08-31T04:39:36.720Z,40
2017-08-31T04:40:37.001Z,45
2017-08-31T04:41:36.990Z,50
2017-08-31T04:42:36.690Z,50
2017-08-31T04:43:36.669Z,55
2017-08-31T04:44:36.666Z,55
2017-08-31T04:45:36.663Z,60
2017-08-31T04:46:36.971Z,70
2017-08-31T04:47:36.644Z,75
2017-08-31T04:48:36.634Z,80
2017-08-31T04:49:36.628Z,85
2017-08-31T04:50:36.620Z,90
2017-08-31T04:51:36.923Z,95
2017-08-31T04:52:36.914Z,100
2017-08-31T04:53:36.896Z,105
2017-08-31T04:54:36.892Z,110
2017-08-31T04:55:36.890Z,120
2017-08-31T04:56:36.881Z,125
2017-08-31T04:57:36.872Z,135
2017-08-31T04:58:36.861Z,135
2017-08-31T04:59:36.849Z,145
2017-08-31T05:00:36.853Z,160
2017-08-31T05:01:36.526Z,170
2017-08-31T05:02:36.824Z,180
2017-08-31T05:03:36.823Z,190
2017-08-31T05:04:36.503Z,200
2017-08-31T05:05:36.513Z,210
2017-08-31T05:06:36.803Z,220
2017-08-31T05:07:36.794Z,230
2017-08-31T05:08:36.822Z,235
2017-08-31T05:09:36.459Z,250
2017-08-31T05:10:36.465Z,265
2017-08-31T05:11:36.473Z,270
2017-08-31T05:12:36.451Z,285
2017-08-31T05:13:36.434Z,295
2017-08-31T05:14:36.758Z,305
2017-08-31T05:15:36.456Z,300
2017-08-31T05:16:36.737Z,300
2017-08-31T05:17:36.413Z,305
2017-08-31T05:18:36.410Z,320
2017-08-31T05:19:36.397Z,330
2017-08-31T05:20:36.389Z,345
2017-08-31T05:21:36.367Z,350
2017-08-31T05:22:36.392Z,375
2017-08-31T05:23:36.360Z,395
2017-08-31T05:24:36.671Z,420
2017-08-31T05:25:36.350Z,450
2017-08-31T05:26:36.335Z,475
2017-08-31T05:27:36.326Z,505
2017-08-31T05:28:36.839Z,535
2017-08-31T05:29:36.330Z,565
2017-08-31T05:30:36.314Z,585
2017-08-31T05:31:36.288Z,605
2017-08-31T05:32:36.285Z,615
2017-08-31T05:33:36.275Z,620
2017-08-31T05:34:36.291Z,600
2017-08-31T05:35:36.602Z,630
2017-08-31T05:36:36.260Z,635
2017-08-31T05:37:36.246Z,640
2017-08-31T05:38:36.567Z,665
2017-08-31T05:39:36.257Z,685
2017-08-31T05:40:35.937Z,715
2017-08-31T05:41:36.536Z,715
2017-08-31T05:42:36.228Z,685
2017-08-31T05:43:36.211Z,665
2017-08-31T05:44:35.899Z,635
2017-08-31T05:45:35.898Z,605
2017-08-31T05:46:35.878Z,595
2017-08-31T05:47:36.503Z,620
2017-08-31T05:48:36.172Z,635
2017-08-31T05:49:36.491Z,665
2017-08-31T05:50:36.159Z,655
2017-08-31T05:51:36.461Z,635
2017-08-31T05:52:36.156Z,615
2017-08-31T05:53:36.462Z,640
2017-08-31T05:54:36.130Z,675
2017-08-31T05:55:36.350Z,730
2017-08-31T05:56:36.442Z,660
2017-08-31T05:57:36.437Z,680
2017-08-31T05:58:36.447Z,675
2017-08-31T05:59:36.323Z,700
2017-08-31T06:00:36.596Z,715
2017-08-31T06:01:36.391Z,780
2017-08-31T06:02:36.395Z,815
2017-08-31T06:03:36.382Z,875
2017-08-31T06:04:36.401Z,870
2017-08-31T06:05:36.057Z,925
2017-08-31T06:06:36.576Z,970
2017-08-31T06:07:36.086Z,995
2017-08-31T06:08:36.362Z,990
2017-08-31T06:09:36.355Z,975
2017-08-31T06:10:35.710Z,995
2017-08-31T06:11:36.351Z,995
2017-08-31T06:12:35.696Z,950
2017-08-31T06:13:36.339Z,945
2017-08-31T06:14:35.696Z,930
2017-08-31T06:15:35.985Z,910
2017-08-31T06:16:36.002Z,840
2017-08-31T06:17:36.295Z,835
2017-08-31T06:18:35.976Z,800
2017-08-31T06:19:35.955Z,750
2017-08-31T06:20:35.975Z,740
2017-08-31T06:21:35.951Z,725
2017-08-31T06:22:36.309Z,745
2017-08-31T06:23:36.243Z,725
2017-08-31T06:24:35.942Z,730
2017-08-31T06:25:35.624Z,710
2017-08-31T06:26:36.261Z,705
2017-08-31T06:27:36.229Z,690
2017-08-31T06:28:36.205Z,690
2017-08-31T06:29:36.212Z,695
2017-08-31T06:30:36.205Z,675
2017-08-31T06:31:36.198Z,670
2017-08-31T06:32:36.194Z,675
2017-08-31T06:33:36.194Z,685
2017-08-31T06:34:36.076Z,690
2017-08-31T06:35:36.067Z,695
2017-08-31T06:36:35.859Z,695
2017-08-31T06:37:36.155Z,690
2017-08-31T06:38:36.151Z,690
2017-08-31T06:39:50.742Z,700
2017-08-31T06:40:36.356Z,710
2017-08-31T06:41:36.156Z,720
2017-08-31T06:42:36.126Z,745
2017-08-31T06:43:36.109Z,755
2017-08-31T06:44:36.099Z,765
2017-08-31T06:45:35.785Z,770
2017-08-31T06:46:35.458Z,775
2017-08-31T06:48:10.554Z,785
2017-08-31T06:49:10.530Z,750
2017-08-31T06:50:10.522Z,715
2017-08-31T06:51:10.212Z,775
2017-08-31T06:52:09.909Z,790
2017-08-31T06:53:09.907Z,805
2017-08-31T06:54:10.199Z,140
2017-08-31T06:55:10.527Z,185
2017-08-31T07:27:47.438Z,16.88
2017-08-31T08:16:08.134Z,534.38
2017-08-31T08:17:08.125Z,568.13
2017-08-31T08:18:10.338Z,1282.50
2017-08-31T08:19:08.107Z,1260.00
2017-08-31T08:20:08.117Z,1237.50
2017-08-31T08:21:08.096Z,1198.13
2017-08-31T08:22:08.081Z,1181.25
2017-08-31T08:23:08.075Z,1203.75
2017-08-31T08:24:08.068Z,1282.50
2017-08-31T08:25:08.058Z,1372.50
2017-08-31T08:26:08.050Z,1423.13
2017-08-31T08:27:08.042Z,1440.00
2017-08-31T08:28:08.034Z,1451.25
2017-08-31T08:29:08.024Z,1271.25
2017-08-31T08:30:08.018Z,1203.75
2017-08-31T08:31:08.010Z,1181.25
2017-08-31T08:32:07.999Z,1203.75
2017-08-31T08:33:07.991Z,1237.50
2017-08-31T08:34:07.982Z,1260.00
2017-08-31T08:35:07.977Z,1288.13
2017-08-31T08:36:07.966Z,1321.88
2017-08-31T08:37:07.957Z,1344.38
2017-08-31T08:38:07.950Z,1333.13
2017-08-31T08:39:07.941Z,1316.25
2017-08-31T08:40:07.932Z,1321.88
2017-08-31T08:41:07.924Z,1338.75
2017-08-31T08:42:07.918Z,1361.25
2017-08-31T08:43:07.908Z,1361.25
2017-08-31T08:44:07.903Z,1338.75
2017-08-31T08:45:07.916Z,1344.38
2017-08-31T08:46:07.883Z,1344.38
2017-08-31T08:47:07.878Z,1355.63
2017-08-31T08:48:07.870Z,1395.00
2017-08-31T08:49:07.858Z,1378.13
2017-08-31T08:50:07.852Z,1372.50
2017-08-31T08:51:07.842Z,1423.13
2017-08-31T08:52:07.835Z,1468.13
2017-08-31T08:53:07.826Z,1513.13
2017-08-31T08:54:07.821Z,1535.63
2017-08-31T08:55:07.812Z,1552.50
2017-08-31T08:56:07.803Z,1681.88
2017-08-31T08:57:07.795Z,1715.63
2017-08-31T08:58:07.787Z,1704.38
2017-08-31T08:59:07.776Z,1541.25
2017-08-31T09:00:07.771Z,1586.25
2017-08-31T09:01:07.759Z,1710.00
2017-08-31T09:02:07.752Z,1918.13
2017-08-31T09:03:07.746Z,1755.00
2017-08-31T09:04:07.737Z,1935.00
2017-08-31T09:05:07.727Z,1845.00
2017-08-31T09:06:07.719Z,1620.00
2017-08-31T09:07:07.713Z,1546.88
2017-08-31T09:08:07.705Z,1546.88
2017-08-31T09:09:07.697Z,1513.13
2017-08-31T09:10:07.686Z,1518.75
2017-08-31T09:11:07.680Z,1524.38
2017-08-31T09:12:07.673Z,1546.88
2017-08-31T09:13:07.667Z,1580.63
2017-08-31T09:14:07.657Z,1676.25
2017-08-31T09:15:07.647Z,1755.00
2017-08-31T09:16:07.639Z,1935.00
2017-08-31T09:17:07.633Z,1828.13
2017-08-31T09:18:07.622Z,1794.38
2017-08-31T09:19:07.616Z,2098.13
2017-08-31T09:20:07.607Z,2205.00
2017-08-31T09:21:07.598Z,2120.63
2017-08-31T09:22:07.592Z,2019.38
2017-08-31T09:23:07.582Z,1929.38
2017-08-31T09:24:07.575Z,1811.25
2017-08-31T09:25:07.566Z,1755.00
2017-08-31T09:26:07.561Z,1710.00
2017-08-31T09:27:07.552Z,1721.25
2017-08-31T09:28:07.546Z,1833.75
2017-08-31T09:29:07.538Z,1878.75
2017-08-31T09:30:07.531Z,2064.38
2017-08-31T09:31:07.551Z,2075.63
2017-08-31T09:32:07.514Z,2030.63
2017-08-31T09:33:07.507Z,2019.38
2017-08-31T09:34:07.502Z,2233.13
2017-08-31T09:35:07.494Z,2238.75
2017-08-31T09:36:07.488Z,2221.88
2017-08-31T09:37:07.481Z,2227.50
2017-08-31T09:38:07.472Z,2103.75
2017-08-31T09:39:07.463Z,1974.38
2017-08-31T09:40:07.461Z,1929.38
2017-08-31T09:41:07.453Z,1912.50
2017-08-31T09:42:07.443Z,1918.13
2017-08-31T09:43:07.439Z,1951.88
2017-08-31T09:44:07.442Z,2176.88
2017-08-31T09:45:07.421Z,2002.50
2017-08-31T09:46:07.416Z,1940.63
2017-08-31T09:47:07.412Z,1878.75
2017-08-31T09:48:07.405Z,1513.13
2017-08-31T09:49:07.397Z,1681.88
2017-08-31T09:50:07.388Z,1642.50
2017-08-31T09:51:07.384Z,1591.88
2017-08-31T09:52:07.374Z,1636.88
2017-08-31T09:53:07.368Z,1805.63
2017-08-31T09:54:07.360Z,2053.13
2017-08-31T09:55:07.356Z,2221.88
2017-08-31T09:56:07.350Z,2379.38
2017-08-31T09:57:07.343Z,2373.75
2017-08-31T09:58:07.333Z,2334.38
2017-08-31T09:59:07.329Z,2306.25
2017-08-31T10:00:07.323Z,2334.38
2017-08-31T10:01:07.319Z,2233.13
2017-08-31T10:02:07.309Z,2278.13
2017-08-31T10:03:07.300Z,2233.13
2017-08-31T10:04:07.296Z,2092.50
2017-08-31T10:05:07.286Z,2115.00
2017-08-31T10:06:07.278Z,2165.63
2017-08-31T10:07:07.272Z,2323.13
2017-08-31T10:08:07.267Z,2086.88
2017-08-31T10:09:07.259Z,2058.75
2017-08-31T10:10:07.250Z,2176.88
2017-08-31T10:11:07.243Z,2261.25
2017-08-31T10:12:07.238Z,2874.38
2017-08-31T10:13:07.229Z,2508.75
2017-08-31T10:14:07.225Z,4275.00
2017-08-31T10:15:07.216Z,4173.75
2017-08-31T10:16:07.213Z,3543.75
2017-08-31T10:17:07.204Z,3656.25
2017-08-31T10:18:07.194Z,4061.25
2017-08-31T10:19:07.188Z,3751.88
2017-08-31T10:20:07.196Z,3532.50
2017-08-31T10:21:07.175Z,3223.13
2017-08-31T10:22:07.170Z,3330.00
2017-08-31T10:23:07.161Z,2227.50
2017-08-31T10:24:07.159Z,2362.50
2017-08-31T10:25:07.152Z,2683.13
2017-08-31T10:26:07.143Z,2570.63
2017-08-31T10:27:07.136Z,2317.50
2017-08-31T10:28:07.130Z,1929.38
2017-08-31T10:29:07.124Z,1710.00
2017-08-31T10:30:07.119Z,1704.38
2017-08-31T10:31:07.109Z,1800.00
2017-08-31T10:32:07.109Z,1710.00
2017-08-31T10:33:07.098Z,2351.25
2017-08-31T10:34:07.092Z,3133.13
2017-08-31T10:35:07.086Z,2936.25
2017-08-31T10:36:07.076Z,2266.88
2017-08-31T10:37:07.069Z,2266.88
2017-08-31T10:38:07.061Z,2649.38
2017-08-31T10:39:07.056Z,2739.38
2017-08-31T10:40:07.050Z,2441.25
2017-08-31T10:41:07.043Z,2430.00
2017-08-31T10:42:07.036Z,2621.25
2017-08-31T10:43:07.035Z,2385.00
2017-08-31T10:44:07.025Z,1912.50
2017-08-31T10:45:07.016Z,1890.00
2017-08-31T10:46:07.011Z,2081.25
2017-08-31T10:47:07.007Z,1468.13
2017-08-31T10:48:06.998Z,1406.25
2017-08-31T10:49:06.992Z,1687.50
2017-08-31T10:50:06.984Z,1766.25
2017-08-31T10:51:06.978Z,1501.88
2017-08-31T10:52:06.972Z,1153.13
2017-08-31T10:53:06.964Z,1063.13
2017-08-31T10:54:06.954Z,984.38
2017-08-31T10:55:06.951Z,995.63
2017-08-31T10:56:06.942Z,1333.13
2017-08-31T10:57:06.934Z,945.00
2017-08-31T10:58:06.929Z,624.38
2017-08-31T10:59:06.919Z,517.50
2017-08-31T11:00:06.913Z,511.88
2017-08-31T11:01:06.905Z,596.25
2017-08-31T11:02:06.899Z,624.38
2017-08-31T11:03:06.890Z,613.13
2017-08-31T11:04:06.882Z,618.75
2017-08-31T11:05:06.877Z,573.75
2017-08-31T11:06:06.869Z,630.00
2017-08-31T11:07:06.865Z,731.25
2017-08-31T11:08:06.853Z,1158.75
2017-08-31T11:09:06.848Z,1254.38
2017-08-31T11:10:06.832Z,1006.88
2017-08-31T11:11:06.827Z,691.88
2017-08-31T11:12:06.816Z,860.63
2017-08-31T11:13:06.807Z,838.13
2017-08-31T11:14:06.799Z,635.63
2017-08-31T11:15:06.793Z,478.13
2017-08-31T11:16:06.785Z,517.50
2017-08-31T11:17:06.780Z,585.00
2017-08-31T11:18:06.767Z,607.50
2017-08-31T11:19:06.758Z,551.25
2017-08-31T11:20:06.749Z,573.75
2017-08-31T11:21:06.741Z,472.50
2017-08-31T11:22:06.736Z,427.50
2017-08-31T11:23:06.732Z,303.75
2017-08-31T11:24:06.715Z,416.25
2017-08-31T11:25:06.704Z,781.88
2017-08-31T11:26:06.694Z,967.50
2017-08-31T11:27:06.739Z,922.50
2017-08-31T11:28:06.739Z,793.13
2017-08-31T11:29:06.781Z,888.75
2017-08-31T11:30:06.781Z,478.13
2017-08-31T11:31:06.743Z,540.00
2017-08-31T11:32:06.733Z,528.75
2017-08-31T11:33:06.729Z,421.88
2017-08-31T11:34:06.847Z,517.50
2017-08-31T11:35:06.748Z,596.25
2017-08-31T11:36:06.799Z,562.50
2017-08-31T11:37:06.656Z,478.13
2017-08-31T11:38:06.576Z,416.25
2017-08-31T11:39:06.569Z,331.88
2017-08-31T11:40:06.566Z,365.63
2017-08-31T11:41:06.558Z,405.00
2017-08-31T11:42:06.537Z,427.50
2017-08-31T11:43:06.528Z,365.63
2017-08-31T11:44:06.519Z,365.63
2017-08-31T11:45:06.509Z,438.75
2017-08-31T11:46:06.497Z,731.25
2017-08-31T11:47:06.485Z,883.13
2017-08-31T11:48:06.476Z,1040.63
2017-08-31T11:49:06.465Z,1091.25
2017-08-31T11:50:06.453Z,871.88
2017-08-31T11:51:06.445Z,562.50
2017-08-31T11:52:06.437Z,500.63
2017-08-31T11:53:06.421Z,376.88
2017-08-31T11:54:06.413Z,303.75
2017-08-31T11:55:06.403Z,331.88
2017-08-31T11:56:06.389Z,371.25
2017-08-31T11:57:06.378Z,376.88
2017-08-31T11:58:06.367Z,360.00
2017-08-31T11:59:06.358Z,253.13
2017-08-31T12:00:06.346Z,225.00
2017-08-31T12:01:06.334Z,320.63
2017-08-31T12:02:06.323Z,410.63
2017-08-31T12:03:06.314Z,433.13
2017-08-31T12:04:06.304Z,382.50
2017-08-31T12:05:06.291Z,388.13
2017-08-31T12:06:06.278Z,405.00
2017-08-31T12:07:06.271Z,433.13
2017-08-31T12:08:06.261Z,455.63
2017-08-31T12:09:06.250Z,405.00
2017-08-31T12:10:06.238Z,427.50
2017-08-31T12:11:06.227Z,427.50
2017-08-31T12:12:06.215Z,393.75
2017-08-31T12:13:06.202Z,421.88
2017-08-31T12:14:06.192Z,455.63
2017-08-31T12:15:06.181Z,483.75
2017-08-31T12:16:06.171Z,472.50
2017-08-31T12:17:06.157Z,427.50
2017-08-31T12:18:06.147Z,405.00
2017-08-31T12:19:06.137Z,444.38
2017-08-31T12:20:06.129Z,528.75
2017-08-31T12:21:06.119Z,438.75
2017-08-31T12:22:06.103Z,410.63
2017-08-31T12:23:06.095Z,399.38
2017-08-31T12:24:06.084Z,410.63
2017-08-31T12:25:06.070Z,478.13
2017-08-31T12:26:06.059Z,450.00
2017-08-31T12:27:06.048Z,388.13
2017-08-31T12:28:06.038Z,399.38
2017-08-31T12:29:06.027Z,376.88
2017-08-31T12:30:06.015Z,326.25
2017-08-31T12:31:06.003Z,275.63
2017-08-31T12:32:05.994Z,315.00
2017-08-31T12:33:05.978Z,427.50
2017-08-31T12:34:05.967Z,455.63
2017-08-31T12:35:05.956Z,540.00
2017-08-31T12:36:05.947Z,804.38
2017-08-31T12:37:05.932Z,888.75
2017-08-31T12:38:05.921Z,798.75
2017-08-31T12:39:05.910Z,1305.00
2017-08-31T12:40:05.901Z,1260.00
2017-08-31T12:41:05.887Z,1209.38
2017-08-31T12:42:05.877Z,1338.75
2017-08-31T12:43:05.865Z,1271.25
2017-08-31T12:44:05.856Z,855.00
2017-08-31T12:45:05.843Z,1006.88
2017-08-31T12:46:05.836Z,877.50
2017-08-31T12:47:05.824Z,691.88
2017-08-31T12:48:05.810Z,534.38
2017-08-31T12:49:05.799Z,534.38
2017-08-31T12:50:05.788Z,658.13
2017-08-31T12:51:05.780Z,961.88
2017-08-31T12:52:05.768Z,618.75
2017-08-31T12:53:05.756Z,534.38
2017-08-31T12:54:05.748Z,838.13
2017-08-31T12:55:05.732Z,922.50
2017-08-31T12:56:05.720Z,798.75
2017-08-31T12:57:05.709Z,1091.25
2017-08-31T12:58:05.698Z,849.38
2017-08-31T12:59:05.690Z,613.13
2017-08-31T13:00:05.678Z,646.88
2017-08-31T13:01:05.665Z,658.13
2017-08-31T13:02:05.657Z,748.13
2017-08-31T13:03:05.648Z,742.50
2017-08-31T13:04:05.637Z,843.75
2017-08-31T13:05:05.623Z,753.75
2017-08-31T13:06:05.613Z,877.50
2017-08-31T13:07:05.606Z,838.13
2017-08-31T13:08:05.593Z,1226.25
2017-08-31T13:09:05.581Z,1372.50
2017-08-31T13:10:05.570Z,2053.13
2017-08-31T13:11:05.561Z,2199.38
2017-08-31T13:12:05.553Z,2019.38
2017-08-31T13:13:05.542Z,1597.50
2017-08-31T13:14:05.533Z,1715.63
2017-08-31T13:15:05.524Z,1721.25
2017-08-31T13:16:05.515Z,1766.25
2017-08-31T13:17:05.503Z,1980.00
2017-08-31T13:18:05.493Z,2013.75
2017-08-31T13:19:05.481Z,1496.25
2017-08-31T13:20:05.472Z,1445.63
2017-08-31T13:21:05.461Z,1063.13
2017-08-31T13:22:05.452Z,1080.00
2017-08-31T13:23:05.450Z,1282.50
2017-08-31T13:24:05.434Z,1203.75
2017-08-31T13:25:05.427Z,1350.00
2017-08-31T13:26:05.412Z,1276.88
2017-08-31T13:27:05.403Z,1456.88
2017-08-31T13:28:05.393Z,1715.63
2017-08-31T13:29:05.381Z,1693.13
2017-08-31T13:30:05.372Z,1136.25
2017-08-31T13:31:05.367Z,1035.00
2017-08-31T13:32:05.355Z,933.75
2017-08-31T13:33:05.343Z,770.63
2017-08-31T13:34:05.335Z,781.88
2017-08-31T13:35:05.324Z,1035.00
2017-08-31T13:36:05.314Z,826.88
2017-08-31T13:37:05.307Z,810.00
2017-08-31T13:38:05.297Z,658.13
2017-08-31T13:39:05.288Z,556.88
2017-08-31T13:40:05.279Z,421.88
2017-08-31T13:41:05.266Z,511.88
2017-08-31T13:42:05.256Z,573.75
2017-08-31T13:43:05.250Z,455.63
2017-08-31T13:44:05.239Z,405.00
2017-08-31T13:45:05.229Z,393.75
2017-08-31T13:46:05.222Z,427.50
2017-08-31T13:47:05.211Z,405.00
2017-08-31T13:48:05.203Z,320.63
2017-08-31T13:49:05.189Z,281.25
2017-08-31T13:50:05.182Z,292.50
2017-08-31T13:51:05.169Z,281.25
2017-08-31T13:52:05.159Z,292.50
2017-08-31T13:53:05.152Z,264.38
2017-08-31T13:54:05.136Z,253.13
2017-08-31T13:55:05.125Z,275.63
2017-08-31T13:56:05.113Z,258.75
2017-08-31T13:57:05.103Z,219.38
2017-08-31T13:58:05.091Z,208.13
2017-08-31T13:59:05.080Z,213.75
2017-08-31T14:00:05.066Z,258.75
2017-08-31T14:01:05.056Z,275.63
2017-08-31T14:02:05.045Z,225.00
2017-08-31T14:03:05.029Z,208.13
2017-08-31T14:04:05.020Z,230.63
2017-08-31T14:05:05.005Z,253.13
2017-08-31T14:06:05.001Z,270.00
2017-08-31T14:07:04.981Z,298.13
2017-08-31T14:08:04.972Z,365.63
2017-08-31T14:09:04.958Z,343.13
2017-08-31T14:10:04.946Z,315.00
2017-08-31T14:11:04.933Z,225.00
2017-08-31T14:12:04.921Z,191.25
2017-08-31T14:13:04.908Z,185.63
2017-08-31T14:14:04.893Z,208.13
2017-08-31T14:15:04.883Z,253.13
2017-08-31T14:16:04.870Z,320.63
2017-08-31T14:17:04.856Z,382.50
2017-08-31T14:18:04.845Z,455.63
2017-08-31T14:19:04.831Z,551.25
2017-08-31T14:20:04.820Z,624.38
2017-08-31T14:21:04.806Z,624.38
2017-08-31T14:22:04.793Z,624.38
2017-08-31T14:23:04.782Z,624.38
2017-08-31T14:24:04.770Z,573.75
2017-08-31T14:25:04.756Z,804.38
2017-08-31T14:26:04.746Z,916.88
2017-08-31T14:27:04.734Z,956.25
2017-08-31T14:28:04.723Z,883.13
2017-08-31T14:29:04.709Z,838.13
2017-08-31T14:30:04.697Z,748.13
2017-08-31T14:31:04.682Z,720.00
2017-08-31T14:32:04.672Z,697.50
2017-08-31T14:33:04.657Z,607.50
2017-08-31T14:34:04.647Z,478.13
2017-08-31T14:35:04.633Z,405.00
2017-08-31T14:36:04.622Z,348.75
2017-08-31T14:37:04.610Z,326.25
2017-08-31T14:38:04.598Z,410.63